createdAt,value
2022-11-28T00:02:38.317Z,9.30
2022-11-28T00:06:45.463Z,8.90
2022-11-28T00:10:47.590Z,9.77
2022-11-28T00:14:49.456Z,10.50
2022-11-28T00:18:52.360Z,9.63
2022-11-28T00:22:54.255Z,9.83
2022-11-28T00:26:56.094Z,9.13
2022-11-28T00:31:00.933Z,8.63
2022-11-28T00:35:02.796Z,8.50
2022-11-28T00:39:05.135Z,8.20
2022-11-28T00:43:07.042Z,8.40
2022-11-28T00:47:08.922Z,8.83
2022-11-28T00:51:22.713Z,9.37
2022-11-28T00:55:24.635Z,8.93
2022-11-28T00:59:26.514Z,9.47
2022-11-28T01:03:28.405Z,9.77
2022-11-28T01:07:30.372Z,9.47
2022-11-28T01:11:32.334Z,9.87
2022-11-28T01:15:34.406Z,8.70
2022-11-28T01:19:36.308Z,9.13
2022-11-28T01:23:38.188Z,9.90
2022-11-28T01:27:39.988Z,9.50
2022-11-28T01:31:42.356Z,8.97
2022-11-28T01:35:56.451Z,9.23
2022-11-28T01:39:58.365Z,8.97
2022-11-28T01:44:21.505Z,8.57
2022-11-28T01:48:29.284Z,8.70
2022-11-28T01:52:31.213Z,8.73
2022-11-28T01:56:40.349Z,8.23
2022-11-28T02:00:42.778Z,10.20
2022-11-28T02:04:45.780Z,9.17
2022-11-28T02:08:53.930Z,8.73
2022-11-28T02:13:21.141Z,8.70
2022-11-28T02:18:08.641Z,9.03
2022-11-28T02:22:29.494Z,8.37
2022-11-28T02:27:01.765Z,8.57
2022-11-28T02:31:44.014Z,8.47
2022-11-28T02:36:27.343Z,8.20
2022-11-28T02:40:56.870Z,8.40
2022-11-28T02:45:05.099Z,8.33
2022-11-28T02:49:10.342Z,7.87
2022-11-28T02:53:19.011Z,8.37
2022-11-28T02:57:20.877Z,8.67
2022-11-28T03:01:36.904Z,7.70
2022-11-28T03:06:20.440Z,7.83
2022-11-28T03:11:03.495Z,7.63
2022-11-28T03:15:13.449Z,8.20
2022-11-28T03:19:31.384Z,8.37
2022-11-28T03:23:48.949Z,8.73
2022-11-28T03:28:03.126Z,8.50
2022-11-28T03:32:11.786Z,7.23
2022-11-28T03:36:25.356Z,7.90
2022-11-28T03:40:35.975Z,8.03
2022-11-28T03:44:44.301Z,8.13
2022-11-28T04:14:42.530Z,8.33
2022-11-28T04:18:57.893Z,8.30
2022-11-28T04:23:06.072Z,8.73
2022-11-28T04:27:10.682Z,8.23
2022-11-28T04:31:12.823Z,8.17
2022-11-28T04:35:28.807Z,8.47
2022-11-28T04:39:31.122Z,7.37
2022-11-28T04:43:36.787Z,8.23
2022-11-28T04:47:38.707Z,8.73
2022-11-28T04:51:59.596Z,8.37
2022-11-28T04:56:12.323Z,9.40
2022-11-28T05:00:18.684Z,8.40
2022-11-28T05:04:20.603Z,8.33
2022-11-28T05:08:22.506Z,7.90
2022-11-28T05:12:37.483Z,9.17
2022-11-28T07:15:17.894Z,8.67
2022-11-28T08:35:50.593Z,8.50
2022-11-28T13:15:53.591Z,11.97
2022-11-28T13:20:27.233Z,12.73
2022-11-28T13:25:04.144Z,12.70
2022-11-28T13:30:33.169Z,12.20
2022-11-28T13:38:34.576Z,12.13
2022-11-28T13:41:02.122Z,12.60
2022-11-28T13:45:35.660Z,12.47
2022-11-28T13:49:37.609Z,12.30
2022-11-28T13:55:13.702Z,12.10
2022-11-28T13:59:37.691Z,12.27
2022-11-28T14:04:24.240Z,12.97
2022-11-28T14:08:38.329Z,13.13
2022-11-28T14:14:47.438Z,15.50
2022-11-28T14:19:47.395Z,13.57
2022-11-28T14:25:05.357Z,12.93
2022-11-28T14:35:06.139Z,13.50
2022-11-28T14:39:17.021Z,13.77
2022-11-28T14:43:34.167Z,13.77
2022-11-28T14:48:21.587Z,13.70
2022-11-28T14:52:42.180Z,14.67
2022-11-28T14:57:27.406Z,14.50
2022-11-28T15:06:25.151Z,11.40
2022-11-28T15:10:42.481Z,12.03
2022-11-28T15:14:59.964Z,11.93
2022-11-28T15:19:23.085Z,12.03
2022-11-28T15:23:42.872Z,11.57
2022-11-28T15:27:48.341Z,12.37
2022-11-28T15:32:06.177Z,12.20
2022-11-28T15:36:32.568Z,12.90
2022-11-28T15:40:38.221Z,13.20
2022-11-28T15:50:32.575Z,12.67
2022-11-28T15:59:43.342Z,12.43
2022-11-28T16:04:17.009Z,11.77
2022-11-28T16:09:36.036Z,10.93
2022-11-28T16:13:39.126Z,11.13
2022-11-28T16:17:44.277Z,11.57
2022-11-28T16:22:20.818Z,11.90
2022-11-28T16:26:30.826Z,11.90
2022-11-28T16:30:38.123Z,11.67
2022-11-28T16:35:43.950Z,10.77
2022-11-28T16:40:04.939Z,11.53
2022-11-28T16:44:14.279Z,14.30
2022-11-28T16:48:27.177Z,13.27
2022-11-28T16:52:32.249Z,13.77
2022-11-28T16:56:39.938Z,13.57
2022-11-28T17:29:50.613Z,12.67
2022-11-28T17:39:22.720Z,12.50
2022-11-28T17:44:08.100Z,12.57
2022-11-28T17:48:15.724Z,11.23
2022-11-28T17:57:42.103Z,12.70
2022-11-28T18:02:30.115Z,12.30
2022-11-28T18:07:21.981Z,15.37
2022-11-28T18:11:45.252Z,14.67
2022-11-28T18:17:51.666Z,14.37
2022-11-28T18:22:15.352Z,14.17
2022-11-28T18:32:35.618Z,14.03
2022-11-28T18:37:07.924Z,15.40
2022-11-28T18:41:37.812Z,15.17
2022-11-28T19:32:42.791Z,13.57
2022-11-28T19:41:58.607Z,14.50
2022-11-28T22:08:10.502Z,13.93
2022-11-28T22:12:49.882Z,13.73
2022-11-28T22:17:36.843Z,14.77
2022-11-28T22:22:31.566Z,15.53
2022-11-28T22:32:28.184Z,14.97
2022-11-28T22:36:34.408Z,14.80
2022-11-28T22:40:42.596Z,14.20
2022-11-28T22:44:44.906Z,15.23
2022-11-28T22:55:07.930Z,14.37
2022-11-28T22:59:33.780Z,15.23
2022-11-28T23:03:52.460Z,15.43
2022-11-28T23:08:22.317Z,14.90
2022-11-28T23:17:43.160Z,16.17
2022-11-28T23:22:02.390Z,14.83
2022-11-28T23:26:09.757Z,14.20
2022-11-28T23:30:24.864Z,14.47
2022-11-28T23:34:35.550Z,13.13
2022-11-28T23:43:20.508Z,14.13
2022-11-28T23:47:51.687Z,14.40
2022-11-28T23:52:07.095Z,14.10
2022-11-28T23:56:36.043Z,15.93
